createdAt,value
2019-03-21T00:00:05.196Z,0.00
2019-03-21T00:01:05.189Z,0.00
2019-03-21T00:02:05.161Z,0.00
2019-03-21T00:03:05.144Z,0.00
2019-03-21T00:04:05.154Z,0.00
2019-03-21T00:05:05.127Z,0.00
2019-03-21T00:06:05.135Z,0.00
2019-03-21T00:07:05.100Z,0.00
2019-03-21T00:08:05.094Z,0.00
2019-03-21T00:09:05.111Z,0.00
2019-03-21T00:10:05.080Z,0.00
2019-03-21T00:11:05.063Z,0.00
2019-03-21T00:12:05.068Z,0.00
2019-03-21T00:13:05.033Z,0.00
2019-03-21T00:14:07.301Z,0.00
2019-03-21T00:15:05.015Z,0.00
2019-03-21T00:16:04.997Z,0.00
2019-03-21T00:17:05.003Z,0.00
2019-03-21T00:18:04.980Z,0.00
2019-03-21T00:19:04.963Z,0.00
2019-03-21T00:20:04.970Z,0.00
2019-03-21T00:21:04.958Z,0.00
2019-03-21T00:22:04.938Z,0.00
2019-03-21T00:23:04.945Z,0.00
2019-03-21T00:24:04.908Z,0.00
2019-03-21T00:25:04.915Z,0.00
2019-03-21T00:26:04.890Z,0.00
2019-03-21T00:27:04.884Z,0.00
2019-03-21T00:28:04.870Z,0.00
2019-03-21T00:29:04.874Z,0.00
2019-03-21T00:30:04.880Z,0.00
2019-03-21T00:31:04.829Z,0.00
2019-03-21T00:32:04.823Z,0.00
2019-03-21T00:33:04.811Z,0.00
2019-03-21T00:34:04.809Z,0.00
2019-03-21T00:35:04.812Z,0.00
2019-03-21T00:36:04.773Z,0.00
2019-03-21T00:37:04.764Z,0.00
2019-03-21T00:38:04.749Z,0.00
2019-03-21T00:39:04.740Z,0.00
2019-03-21T00:40:04.749Z,0.00
2019-03-21T00:41:04.724Z,0.00
2019-03-21T00:42:04.701Z,0.00
2019-03-21T00:43:04.703Z,0.00
2019-03-21T00:44:04.699Z,0.00
2019-03-21T00:45:04.680Z,0.00
2019-03-21T00:46:04.681Z,0.00
2019-03-21T00:47:04.648Z,0.00
2019-03-21T00:48:04.692Z,0.00
2019-03-21T00:49:04.662Z,0.00
2019-03-21T00:50:04.644Z,0.00
2019-03-21T00:51:04.629Z,0.00
2019-03-21T00:52:04.621Z,0.00
2019-03-21T00:53:04.577Z,0.00
2019-03-21T00:54:04.623Z,0.00
2019-03-21T00:55:04.568Z,0.00
2019-03-21T00:56:04.680Z,0.00
2019-03-21T00:57:04.561Z,0.00
2019-03-21T00:58:04.540Z,0.00
2019-03-21T00:59:04.515Z,0.00
2019-03-21T01:00:04.555Z,0.00
2019-03-21T01:01:04.509Z,0.00
2019-03-21T01:02:04.487Z,0.00
2019-03-21T01:03:04.489Z,0.00
2019-03-21T01:04:04.494Z,0.00
2019-03-21T01:05:04.454Z,0.00
2019-03-21T01:06:04.919Z,0.00
2019-03-21T01:07:04.441Z,0.00
2019-03-21T01:08:04.425Z,0.00
2019-03-21T01:09:04.407Z,0.00
2019-03-21T01:10:04.392Z,0.00
2019-03-21T01:11:04.402Z,0.00
2019-03-21T01:12:04.387Z,0.00
2019-03-21T01:13:04.362Z,0.00
2019-03-21T01:14:04.358Z,0.00
2019-03-21T01:15:04.375Z,0.00
2019-03-21T01:16:04.362Z,0.00
2019-03-21T01:17:04.316Z,0.00
2019-03-21T01:18:04.299Z,0.00
2019-03-21T01:19:04.288Z,0.00
2019-03-21T01:20:04.283Z,0.00
2019-03-21T01:21:04.298Z,0.00
2019-03-21T01:22:04.257Z,0.00
2019-03-21T01:23:04.251Z,0.00
2019-03-21T01:24:04.235Z,0.00
2019-03-21T01:25:04.236Z,0.00
2019-03-21T01:26:04.241Z,0.00
2019-03-21T01:27:04.193Z,0.00
2019-03-21T01:28:04.193Z,0.00
2019-03-21T01:29:04.213Z,0.00
2019-03-21T01:30:04.166Z,0.00
2019-03-21T01:31:04.419Z,0.00
2019-03-21T01:32:04.187Z,0.00
2019-03-21T01:33:04.135Z,0.00
2019-03-21T01:34:04.122Z,0.00
2019-03-21T01:35:04.136Z,0.00
2019-03-21T01:36:04.104Z,0.00
2019-03-21T01:37:04.114Z,0.00
2019-03-21T01:38:04.071Z,0.00
2019-03-21T01:39:04.058Z,0.00
2019-03-21T01:40:04.065Z,0.00
2019-03-21T01:41:04.039Z,0.00
2019-03-21T01:42:04.049Z,0.00
2019-03-21T01:43:04.023Z,0.00
2019-03-21T01:44:04.003Z,0.00
2019-03-21T01:45:03.999Z,0.00
2019-03-21T01:46:04.005Z,0.00
2019-03-21T01:47:03.999Z,0.00
2019-03-21T01:48:03.979Z,0.00
2019-03-21T01:49:04.089Z,0.00
2019-03-21T01:50:03.941Z,0.00
2019-03-21T01:51:03.936Z,0.00
2019-03-21T01:52:03.934Z,0.00
2019-03-21T01:53:03.923Z,0.00
2019-03-21T01:54:03.895Z,0.00
2019-03-21T01:55:03.875Z,0.00
2019-03-21T01:56:03.868Z,0.00
2019-03-21T01:57:03.907Z,0.00
2019-03-21T01:58:03.843Z,0.00
2019-03-21T01:59:03.843Z,0.00
2019-03-21T02:00:03.827Z,0.00
2019-03-21T02:01:03.812Z,0.00
2019-03-21T02:02:03.818Z,0.00
2019-03-21T02:03:03.785Z,0.00
2019-03-21T02:04:03.786Z,0.00
2019-03-21T02:05:03.829Z,0.00
2019-03-21T02:06:03.761Z,0.00
2019-03-21T02:07:03.742Z,0.00
2019-03-21T02:08:03.922Z,0.00
2019-03-21T02:09:03.727Z,0.00
2019-03-21T02:10:03.733Z,0.00
2019-03-21T02:11:03.716Z,0.00
2019-03-21T02:12:03.683Z,0.00
2019-03-21T02:13:03.691Z,0.00
2019-03-21T02:14:03.682Z,0.00
2019-03-21T02:15:03.660Z,0.00
2019-03-21T02:16:03.654Z,0.00
2019-03-21T02:17:03.664Z,0.00
2019-03-21T02:18:03.660Z,0.00
2019-03-21T02:19:03.609Z,0.00
2019-03-21T02:20:03.594Z,0.00
2019-03-21T02:21:03.611Z,0.00
2019-03-21T02:22:03.591Z,0.00
2019-03-21T02:23:03.601Z,0.00
2019-03-21T02:24:03.554Z,0.00
2019-03-21T02:25:03.539Z,0.00
2019-03-21T02:26:03.538Z,0.00
2019-03-21T02:27:03.515Z,0.00
2019-03-21T02:28:03.552Z,0.00
2019-03-21T02:29:03.502Z,0.00
2019-03-21T02:30:03.496Z,0.00
2019-03-21T02:31:03.498Z,0.00
2019-03-21T02:32:03.474Z,0.00
2019-03-21T02:33:03.452Z,0.00
2019-03-21T02:34:03.475Z,0.00
2019-03-21T02:35:03.445Z,0.00
2019-03-21T02:36:03.420Z,0.00
2019-03-21T02:37:03.413Z,0.00
2019-03-21T02:38:03.396Z,0.00
2019-03-21T02:39:03.404Z,0.00
2019-03-21T02:40:03.375Z,0.00
2019-03-21T02:41:03.368Z,0.00
2019-03-21T02:42:03.345Z,0.00
2019-03-21T02:43:03.343Z,0.00
2019-03-21T02:44:03.348Z,0.00
2019-03-21T02:45:08.928Z,0.00
2019-03-21T02:46:04.340Z,0.00
2019-03-21T02:47:03.288Z,0.00
2019-03-21T02:48:03.292Z,0.00
2019-03-21T02:49:03.296Z,0.00
2019-03-21T02:50:03.298Z,0.00
2019-03-21T02:51:03.262Z,0.00
2019-03-21T02:52:04.417Z,0.00
2019-03-21T02:53:03.226Z,0.00
2019-03-21T02:54:03.247Z,0.00
2019-03-21T02:55:03.212Z,0.00
2019-03-21T02:56:03.209Z,0.00
2019-03-21T02:57:03.182Z,0.00
2019-03-21T02:58:03.177Z,0.00
2019-03-21T02:59:03.190Z,0.00
2019-03-21T03:00:03.163Z,0.00
2019-03-21T03:01:03.142Z,0.00
2019-03-21T03:02:03.133Z,0.00
2019-03-21T03:03:03.117Z,0.00
2019-03-21T03:04:03.122Z,0.00
2019-03-21T03:05:03.096Z,0.00
2019-03-21T03:06:03.107Z,0.00
2019-03-21T03:07:03.082Z,0.00
2019-03-21T03:08:03.058Z,0.00
2019-03-21T03:09:03.078Z,0.00
2019-03-21T03:10:03.036Z,0.00
2019-03-21T03:11:03.030Z,0.00
2019-03-21T03:12:03.029Z,0.00
2019-03-21T03:13:02.997Z,0.00
2019-03-21T03:14:04.662Z,0.00
2019-03-21T03:15:03.000Z,0.00
2019-03-21T03:16:02.964Z,0.00
2019-03-21T03:17:02.961Z,0.00
2019-03-21T03:18:02.973Z,0.00
2019-03-21T03:19:02.974Z,0.00
2019-03-21T03:20:02.940Z,0.00
2019-03-21T03:21:02.935Z,0.00
2019-03-21T03:22:02.930Z,0.00
2019-03-21T03:23:02.889Z,0.00
2019-03-21T03:24:02.903Z,0.00
2019-03-21T03:25:02.864Z,0.00
2019-03-21T03:26:02.873Z,0.00
2019-03-21T03:27:02.910Z,0.00
2019-03-21T03:28:02.828Z,0.00
2019-03-21T03:29:02.851Z,0.00
2019-03-21T03:30:02.849Z,0.00
2019-03-21T03:31:02.817Z,0.00
2019-03-21T03:32:02.797Z,0.00
2019-03-21T03:33:02.825Z,0.00
2019-03-21T03:34:02.820Z,0.00
2019-03-21T03:35:02.773Z,0.00
2019-03-21T03:36:02.754Z,0.00
2019-03-21T03:37:02.742Z,0.00
2019-03-21T03:38:02.734Z,0.00
2019-03-21T03:39:02.744Z,0.00
2019-03-21T03:40:02.693Z,0.00
2019-03-21T03:41:02.699Z,0.00
2019-03-21T03:42:02.673Z,0.00
2019-03-21T03:43:02.667Z,0.00
2019-03-21T03:44:02.685Z,0.00
2019-03-21T03:45:02.644Z,0.00
2019-03-21T03:46:02.652Z,0.00
2019-03-21T03:47:02.616Z,0.00
2019-03-21T03:48:02.609Z,0.00
2019-03-21T03:49:02.615Z,0.00
2019-03-21T03:50:02.584Z,0.00
2019-03-21T03:51:02.569Z,0.00
2019-03-21T03:52:02.568Z,0.00
2019-03-21T03:53:02.550Z,0.00
2019-03-21T03:54:02.553Z,0.00
2019-03-21T03:55:02.539Z,0.00
2019-03-21T03:56:02.521Z,0.00
2019-03-21T03:57:02.512Z,0.00
2019-03-21T03:58:02.516Z,0.00
2019-03-21T03:59:02.522Z,0.00
2019-03-21T04:00:02.482Z,0.00
2019-03-21T04:01:02.474Z,0.00
2019-03-21T04:02:02.446Z,0.00
2019-03-21T04:03:02.453Z,0.00
2019-03-21T04:04:02.456Z,0.00
2019-03-21T04:05:02.419Z,0.00
2019-03-21T04:06:02.421Z,0.00
2019-03-21T04:07:02.434Z,0.00
2019-03-21T04:08:02.405Z,0.00
2019-03-21T04:09:02.407Z,0.00
2019-03-21T04:10:02.368Z,0.00
2019-03-21T04:11:02.359Z,0.00
2019-03-21T04:12:02.375Z,0.00
2019-03-21T04:13:02.354Z,0.00
2019-03-21T04:14:02.365Z,0.00
2019-03-21T04:15:02.315Z,0.00
2019-03-21T04:16:02.297Z,0.00
2019-03-21T04:17:02.292Z,0.00
2019-03-21T04:18:02.288Z,0.00
2019-03-21T04:19:02.292Z,0.00
2019-03-21T04:20:02.276Z,0.00
2019-03-21T04:21:02.258Z,0.00
2019-03-21T04:22:02.236Z,0.00
2019-03-21T04:23:02.236Z,0.00
2019-03-21T04:24:02.231Z,0.00
2019-03-21T04:25:02.243Z,0.00
2019-03-21T04:26:02.197Z,0.00
2019-03-21T04:27:02.170Z,0.00
2019-03-21T04:28:02.269Z,0.00
2019-03-21T04:29:02.171Z,0.00
2019-03-21T04:30:02.145Z,0.00
2019-03-21T04:31:02.132Z,0.00
2019-03-21T04:32:02.157Z,0.00
2019-03-21T04:33:02.112Z,0.00
2019-03-21T04:34:02.115Z,0.00
2019-03-21T04:35:02.116Z,0.00
2019-03-21T04:36:02.099Z,0.00
2019-03-21T04:37:02.069Z,0.00
2019-03-21T04:38:02.058Z,0.00
2019-03-21T04:39:02.275Z,0.00
2019-03-21T04:40:02.034Z,0.00
2019-03-21T04:41:02.034Z,0.00
2019-03-21T04:42:02.029Z,0.00
2019-03-21T04:43:02.006Z,0.00
2019-03-21T04:44:02.021Z,4.00
2019-03-21T04:45:01.978Z,4.00
2019-03-21T04:46:03.725Z,4.00
2019-03-21T04:47:01.961Z,4.00
2019-03-21T04:48:01.967Z,4.00
2019-03-21T04:49:02.006Z,4.00
2019-03-21T04:50:01.983Z,8.00
2019-03-21T04:51:01.923Z,8.00
2019-03-21T04:52:01.918Z,8.00
2019-03-21T04:53:01.884Z,8.00
2019-03-21T04:54:01.934Z,8.00
2019-03-21T04:55:01.891Z,8.00
2019-03-21T04:56:01.866Z,16.00
2019-03-21T04:57:01.855Z,16.00
2019-03-21T04:58:01.838Z,16.00
2019-03-21T04:59:01.857Z,16.00
2019-03-21T05:00:03.684Z,20.00
2019-03-21T05:01:02.054Z,20.00
2019-03-21T05:02:01.774Z,28.00
2019-03-21T05:03:01.788Z,28.00
2019-03-21T05:04:01.952Z,32.00
2019-03-21T05:05:01.771Z,32.00
2019-03-21T05:06:01.738Z,40.00
2019-03-21T05:07:01.759Z,44.00
2019-03-21T05:08:01.734Z,48.00
2019-03-21T05:09:01.715Z,52.00
2019-03-21T05:10:01.825Z,52.00
2019-03-21T05:11:01.816Z,60.00
2019-03-21T05:12:01.683Z,68.00
2019-03-21T05:13:01.652Z,72.00
2019-03-21T05:14:01.686Z,76.00
2019-03-21T05:15:01.660Z,84.00
2019-03-21T05:16:01.621Z,92.00
2019-03-21T05:17:01.623Z,96.00
2019-03-21T05:18:01.623Z,104.00
2019-03-21T05:19:01.588Z,120.00
2019-03-21T05:20:01.620Z,128.00
2019-03-21T05:21:01.573Z,136.00
2019-03-21T05:22:01.560Z,148.00
2019-03-21T05:23:01.565Z,148.00
2019-03-21T05:24:01.533Z,156.00
2019-03-21T05:25:01.537Z,172.00
2019-03-21T05:26:03.928Z,172.00
2019-03-21T05:27:01.502Z,168.00
2019-03-21T05:28:01.500Z,180.00
2019-03-21T05:29:01.496Z,196.00
2019-03-21T05:30:01.513Z,212.00
2019-03-21T05:31:01.454Z,212.00
2019-03-21T05:32:03.666Z,216.00
2019-03-21T05:33:01.438Z,232.00
2019-03-21T05:34:01.436Z,232.00
2019-03-21T05:35:01.448Z,236.00
2019-03-21T05:36:01.394Z,244.00
2019-03-21T05:37:01.409Z,268.00
2019-03-21T05:38:01.391Z,284.00
2019-03-21T05:39:01.367Z,300.00
2019-03-21T05:40:01.400Z,348.00
2019-03-21T05:41:01.361Z,384.00
2019-03-21T05:42:01.341Z,400.00
2019-03-21T05:43:01.339Z,416.00
2019-03-21T05:44:01.329Z,424.00
2019-03-21T05:45:01.513Z,432.00
2019-03-21T05:46:01.296Z,492.00
2019-03-21T05:47:01.295Z,524.00
2019-03-21T05:48:01.266Z,568.00
2019-03-21T05:49:01.265Z,620.00
2019-03-21T05:50:01.294Z,660.00
2019-03-21T05:51:01.238Z,668.00
2019-03-21T05:52:01.221Z,688.00
2019-03-21T05:53:01.201Z,668.00
2019-03-21T05:54:01.206Z,696.00
2019-03-21T05:55:01.207Z,780.00
2019-03-21T05:56:01.192Z,828.00
2019-03-21T05:57:01.185Z,868.00
2019-03-21T05:58:01.149Z,880.00
2019-03-21T05:59:01.142Z,888.00
2019-03-21T06:00:01.156Z,924.00
2019-03-21T06:01:01.108Z,936.00
2019-03-21T06:02:01.107Z,936.00
2019-03-21T06:03:01.116Z,964.00
2019-03-21T06:04:01.105Z,1020.00
2019-03-21T06:05:01.261Z,1068.00
2019-03-21T06:06:01.088Z,1080.00
2019-03-21T06:07:01.035Z,1080.00
2019-03-21T06:08:01.039Z,1104.00
2019-03-21T06:09:01.019Z,1096.00
2019-03-21T06:10:01.004Z,1120.00
2019-03-21T06:11:01.018Z,1176.00
2019-03-21T06:12:00.980Z,1176.00
2019-03-21T06:13:00.981Z,1208.00
2019-03-21T06:14:00.987Z,1216.00
2019-03-21T06:15:00.958Z,1236.00
2019-03-21T06:16:01.151Z,1268.00
2019-03-21T06:17:00.947Z,1272.00
2019-03-21T06:18:00.915Z,1308.00
2019-03-21T06:19:00.921Z,1324.00
2019-03-21T06:20:03.763Z,1364.00
2019-03-21T06:21:00.916Z,1452.00
2019-03-21T06:22:00.873Z,1468.00
2019-03-21T06:23:00.896Z,1536.00
2019-03-21T06:24:00.852Z,1596.00
2019-03-21T06:25:00.856Z,1540.00
2019-03-21T06:26:00.857Z,1532.00
2019-03-21T06:27:00.864Z,1536.00
2019-03-21T06:28:00.827Z,1496.00
2019-03-21T06:29:00.810Z,1456.00
2019-03-21T06:30:00.809Z,1464.00
2019-03-21T06:31:00.814Z,1540.00
2019-03-21T06:32:00.777Z,1544.00
2019-03-21T06:33:00.768Z,1592.00
2019-03-21T06:34:00.746Z,1624.00
2019-03-21T06:35:00.722Z,1664.00
2019-03-21T06:36:00.793Z,1660.00
2019-03-21T06:37:00.709Z,1652.00
2019-03-21T06:38:00.692Z,1540.00
2019-03-21T06:39:00.687Z,1640.00
2019-03-21T06:40:00.681Z,1568.00
2019-03-21T06:41:00.691Z,1564.00
2019-03-21T06:42:00.644Z,1568.00
2019-03-21T06:43:00.632Z,1564.00
2019-03-21T06:44:00.626Z,1616.00
2019-03-21T06:45:00.619Z,1692.00
2019-03-21T06:46:00.622Z,1660.00
2019-03-21T06:47:00.586Z,1580.00
2019-03-21T06:48:00.567Z,1552.00
2019-03-21T06:49:00.568Z,1608.00
2019-03-21T06:50:00.549Z,1704.00
2019-03-21T06:51:00.547Z,1704.00
2019-03-21T06:52:00.551Z,1696.00
2019-03-21T06:53:03.128Z,1656.00
2019-03-21T06:54:00.527Z,1656.00
2019-03-21T06:55:00.505Z,1668.00
2019-03-21T06:56:00.477Z,1668.00
2019-03-21T06:57:02.508Z,1704.00
2019-03-21T06:58:00.457Z,1764.00
2019-03-21T06:59:00.460Z,1872.00
2019-03-21T07:00:00.442Z,1988.00
2019-03-21T07:01:00.435Z,2004.00
2019-03-21T07:02:00.445Z,2048.00
2019-03-21T07:03:00.408Z,2040.00
2019-03-21T07:04:06.966Z,2088.00
2019-03-21T07:05:01.387Z,2112.00
2019-03-21T07:06:00.367Z,2120.00
2019-03-21T07:07:08.143Z,2084.00
2019-03-21T07:08:01.350Z,2088.00
2019-03-21T07:09:00.346Z,2096.00
2019-03-21T07:10:00.368Z,2096.00
2019-03-21T07:11:00.309Z,2228.00
2019-03-21T07:12:00.335Z,2348.00
2019-03-21T07:13:00.284Z,2276.00
2019-03-21T07:14:00.284Z,2288.00
2019-03-21T07:15:00.380Z,2368.00
2019-03-21T07:16:00.261Z,2388.00
2019-03-21T07:17:00.867Z,2340.00
2019-03-21T07:18:00.262Z,2300.00
2019-03-21T07:19:00.216Z,2272.00
2019-03-21T07:20:00.361Z,2256.00
2019-03-21T07:21:01.186Z,2240.00
2019-03-21T07:22:00.182Z,2172.00
2019-03-21T07:23:00.200Z,1976.00
2019-03-21T07:24:00.213Z,2012.00
2019-03-21T07:25:00.485Z,2328.00
2019-03-21T07:26:00.150Z,2304.00
2019-03-21T07:27:00.167Z,2404.00
2019-03-21T07:28:00.129Z,2588.00
2019-03-21T07:29:00.100Z,2596.00
2019-03-21T07:30:00.141Z,2528.00
2019-03-21T07:31:00.085Z,2436.00
2019-03-21T07:32:00.087Z,2444.00
2019-03-21T07:33:00.071Z,2364.00
2019-03-21T07:34:00.077Z,2268.00
2019-03-21T07:35:00.044Z,2184.00
2019-03-21T07:36:00.029Z,2164.00
2019-03-21T07:37:00.023Z,2148.00
2019-03-21T07:38:00.018Z,2100.00
2019-03-21T07:39:00.025Z,2084.00
2019-03-21T07:39:59.985Z,2248.00
2019-03-21T07:41:00.194Z,2396.00
2019-03-21T07:42:01.136Z,2496.00
2019-03-21T07:42:59.971Z,2500.00
2019-03-21T07:43:59.985Z,2408.00
2019-03-21T07:44:59.939Z,2408.00
2019-03-21T07:45:59.917Z,2376.00
2019-03-21T07:47:11.828Z,2508.00
2019-03-21T07:48:00.907Z,2708.00
2019-03-21T07:48:59.897Z,2876.00
2019-03-21T07:49:59.944Z,2968.00
2019-03-21T07:50:59.853Z,3136.00
2019-03-21T07:51:59.853Z,3068.00
2019-03-21T07:52:59.837Z,2872.00
2019-03-21T07:53:59.826Z,2932.00
2019-03-21T07:54:59.833Z,3232.00
2019-03-21T07:55:59.811Z,3120.00
2019-03-21T07:56:59.811Z,2864.00
2019-03-21T07:57:59.794Z,2584.00
2019-03-21T07:58:59.773Z,2492.00
2019-03-21T07:59:59.773Z,2516.00
2019-03-21T08:00:59.745Z,2452.00
2019-03-21T08:01:59.739Z,2788.00
2019-03-21T08:02:59.733Z,2576.00
2019-03-21T08:03:59.709Z,2688.00
2019-03-21T08:04:59.728Z,2848.00
2019-03-21T08:05:59.710Z,2840.00
2019-03-21T08:06:59.771Z,3124.00
2019-03-21T08:07:59.670Z,3168.00
2019-03-21T08:08:59.655Z,3176.00
2019-03-21T08:09:59.677Z,3228.00
2019-03-21T08:10:59.638Z,3316.00
2019-03-21T08:11:59.648Z,3276.00
2019-03-21T08:12:59.608Z,3264.00
2019-03-21T08:13:59.600Z,3344.00
2019-03-21T08:14:59.600Z,3528.00
2019-03-21T08:15:59.587Z,3580.00
2019-03-21T08:16:59.571Z,3496.00
2019-03-21T08:17:59.596Z,3316.00
2019-03-21T08:18:59.806Z,3132.00
2019-03-21T08:19:59.555Z,3264.00
2019-03-21T08:21:00.181Z,3496.00
2019-03-21T08:21:59.518Z,3452.00
2019-03-21T08:22:59.519Z,3496.00
2019-03-21T08:23:59.537Z,2912.00
2019-03-21T08:24:59.499Z,3100.00
2019-03-21T08:25:59.469Z,2796.00
2019-03-21T08:26:59.451Z,2944.00
2019-03-21T08:27:59.452Z,3024.00
2019-03-21T08:28:59.458Z,3196.00
2019-03-21T08:29:59.467Z,3248.00
2019-03-21T08:30:59.401Z,3040.00
2019-03-21T08:31:59.405Z,3124.00
2019-03-21T08:32:59.395Z,3216.00
2019-03-21T08:33:59.385Z,3076.00
2019-03-21T08:34:59.395Z,3056.00
2019-03-21T08:35:59.350Z,3372.00
2019-03-21T08:36:59.333Z,3580.00
2019-03-21T08:37:59.329Z,3840.00
2019-03-21T08:38:59.330Z,3636.00
2019-03-21T08:39:59.326Z,3864.00
2019-03-21T08:40:59.290Z,3972.00
2019-03-21T08:41:59.281Z,4016.00
2019-03-21T08:42:59.278Z,4052.00
2019-03-21T08:43:59.292Z,3984.00
2019-03-21T08:44:59.270Z,4056.00
2019-03-21T08:45:59.269Z,4056.00
2019-03-21T08:46:59.220Z,4200.00
2019-03-21T08:47:59.216Z,4404.00
2019-03-21T08:48:59.531Z,4580.00
2019-03-21T08:49:59.202Z,4352.00
2019-03-21T08:51:07.812Z,4100.00
2019-03-21T08:52:00.165Z,3940.00
2019-03-21T08:52:59.149Z,3812.00
2019-03-21T08:53:59.182Z,3868.00
2019-03-21T08:54:59.139Z,3916.00
2019-03-21T08:55:59.131Z,4052.00
2019-03-21T08:56:59.135Z,4376.00
2019-03-21T08:57:59.098Z,4656.00
2019-03-21T08:58:59.946Z,4952.00
2019-03-21T08:59:59.086Z,5348.00
2019-03-21T09:00:59.087Z,5532.00
2019-03-21T09:01:59.066Z,4700.00
2019-03-21T09:02:59.053Z,5240.00
2019-03-21T09:03:59.033Z,5196.00
2019-03-21T09:04:59.922Z,5144.00
2019-03-21T09:05:59.032Z,5444.00
2019-03-21T09:06:59.003Z,5620.00
2019-03-21T09:07:59.008Z,5784.00
2019-03-21T09:08:58.988Z,5540.00
2019-03-21T09:09:58.960Z,4720.00
2019-03-21T09:10:58.968Z,5176.00
2019-03-21T09:11:58.949Z,5916.00
2019-03-21T09:12:58.941Z,6004.00
2019-03-21T09:13:58.923Z,5776.00
2019-03-21T09:14:58.908Z,5556.00
2019-03-21T09:15:58.920Z,5536.00
2019-03-21T09:16:58.881Z,5912.00
2019-03-21T09:17:58.890Z,5764.00
2019-03-21T09:18:58.886Z,5644.00
2019-03-21T09:19:59.023Z,6500.00
2019-03-21T09:20:58.902Z,6728.00
2019-03-21T09:21:58.933Z,6828.00
2019-03-21T09:22:58.813Z,7480.00
2019-03-21T09:23:58.811Z,7000.00
2019-03-21T09:24:58.822Z,6840.00
2019-03-21T09:25:58.777Z,6672.00
2019-03-21T09:26:58.811Z,7024.00
2019-03-21T09:28:02.763Z,7544.00
2019-03-21T09:28:58.749Z,7148.00
2019-03-21T09:29:58.792Z,6888.00
2019-03-21T09:30:58.735Z,6916.00
2019-03-21T09:31:58.921Z,6868.00
2019-03-21T09:32:58.711Z,6460.00
2019-03-21T09:33:58.703Z,7164.00
2019-03-21T09:34:58.701Z,7528.00
2019-03-21T09:35:58.700Z,7188.00
2019-03-21T09:36:58.717Z,6660.00
2019-03-21T09:37:58.659Z,6420.00
2019-03-21T09:38:58.640Z,6136.00
2019-03-21T09:39:58.626Z,6320.00
2019-03-21T09:40:58.639Z,6340.00
2019-03-21T09:41:58.654Z,6364.00
2019-03-21T09:42:58.615Z,6316.00
2019-03-21T09:43:58.592Z,6500.00
2019-03-21T09:44:58.597Z,6232.00
2019-03-21T09:45:58.571Z,5600.00
2019-03-21T09:46:58.586Z,5596.00
2019-03-21T09:47:58.605Z,6172.00
2019-03-21T09:48:58.527Z,6248.00
2019-03-21T09:49:59.383Z,6432.00
2019-03-21T09:50:58.515Z,6604.00
2019-03-21T09:51:58.526Z,6424.00
2019-03-21T09:52:58.517Z,6320.00
2019-03-21T09:54:09.228Z,6104.00
2019-03-21T09:54:59.488Z,6156.00
2019-03-21T09:55:58.463Z,6568.00
2019-03-21T09:56:58.473Z,6384.00
2019-03-21T09:57:58.441Z,6360.00
2019-03-21T09:58:58.439Z,6308.00
2019-03-21T09:59:58.439Z,6100.00
2019-03-21T10:00:58.396Z,6660.00
2019-03-21T10:01:58.436Z,6668.00
2019-03-21T10:02:58.431Z,6452.00
2019-03-21T10:03:58.383Z,6176.00
2019-03-21T10:04:58.367Z,5972.00
2019-03-21T10:05:58.367Z,6116.00
2019-03-21T10:06:58.321Z,6244.00
2019-03-21T10:07:59.547Z,6216.00
2019-03-21T10:08:58.322Z,6244.00
2019-03-21T10:09:58.302Z,6328.00
2019-03-21T10:10:58.293Z,5880.00
2019-03-21T10:11:58.268Z,5452.00
2019-03-21T10:12:58.273Z,5464.00
2019-03-21T10:13:58.261Z,5808.00
2019-03-21T10:14:58.257Z,6388.00
2019-03-21T10:15:58.227Z,5848.00
2019-03-21T10:16:58.229Z,5348.00
2019-03-21T10:17:58.240Z,5764.00
2019-03-21T10:18:58.207Z,5528.00
2019-03-21T10:19:58.189Z,5632.00
2019-03-21T10:20:58.166Z,5476.00
2019-03-21T10:21:58.268Z,5676.00
2019-03-21T10:22:58.163Z,6044.00
2019-03-21T10:23:58.143Z,6380.00
2019-03-21T10:24:58.130Z,6640.00
2019-03-21T10:25:58.137Z,6360.00
2019-03-21T10:26:58.104Z,6956.00
2019-03-21T10:27:58.105Z,7272.00
2019-03-21T10:28:58.116Z,6848.00
2019-03-21T10:29:58.073Z,6124.00
2019-03-21T10:30:58.071Z,6044.00
2019-03-21T10:31:58.071Z,5880.00
2019-03-21T10:32:58.034Z,5848.00
2019-03-21T10:33:58.045Z,5808.00
2019-03-21T10:34:58.008Z,6196.00
2019-03-21T10:35:58.011Z,6484.00
2019-03-21T10:36:58.009Z,6468.00
2019-03-21T10:37:58.047Z,6692.00
2019-03-21T10:38:57.980Z,7440.00
2019-03-21T10:39:58.029Z,7272.00
2019-03-21T10:40:57.937Z,6820.00
2019-03-21T10:41:57.936Z,6392.00
2019-03-21T10:42:57.948Z,7084.00
2019-03-21T10:43:57.909Z,6912.00
2019-03-21T10:44:57.957Z,6344.00
2019-03-21T10:45:57.929Z,6304.00
2019-03-21T10:46:57.879Z,6584.00
2019-03-21T10:47:57.864Z,6560.00
2019-03-21T10:48:57.880Z,6108.00
2019-03-21T10:49:57.845Z,5964.00
2019-03-21T10:50:57.848Z,5752.00
2019-03-21T10:51:57.816Z,5740.00
2019-03-21T10:52:57.813Z,5984.00
2019-03-21T10:53:57.828Z,5808.00
2019-03-21T10:54:57.814Z,5944.00
2019-03-21T10:55:57.780Z,6248.00
2019-03-21T10:56:57.777Z,6572.00
2019-03-21T10:57:57.749Z,6244.00
2019-03-21T10:58:57.743Z,6480.00
2019-03-21T10:59:57.729Z,6328.00
2019-03-21T11:00:57.764Z,6712.00
2019-03-21T11:02:06.911Z,6348.00
2019-03-21T11:02:58.687Z,5864.00
2019-03-21T11:03:57.683Z,5908.00
2019-03-21T11:04:57.679Z,6032.00
2019-03-21T11:05:57.685Z,6548.00
2019-03-21T11:06:57.654Z,6628.00
2019-03-21T11:07:57.649Z,5912.00
2019-03-21T11:08:57.619Z,5900.00
2019-03-21T11:09:57.615Z,6848.00
2019-03-21T11:10:57.617Z,6444.00
2019-03-21T11:11:57.708Z,6152.00
2019-03-21T11:12:57.591Z,6016.00
2019-03-21T11:13:57.591Z,6084.00
2019-03-21T11:14:57.550Z,6844.00
2019-03-21T11:15:57.545Z,6592.00
2019-03-21T11:16:57.562Z,6332.00
2019-03-21T11:17:57.515Z,6012.00
2019-03-21T11:18:57.542Z,6512.00
2019-03-21T11:19:57.500Z,6940.00
2019-03-21T11:20:57.487Z,6840.00
2019-03-21T11:22:05.804Z,6036.00
2019-03-21T11:22:58.471Z,5716.00
2019-03-21T11:23:57.547Z,6232.00
2019-03-21T11:24:57.459Z,6840.00
2019-03-21T11:25:57.447Z,6404.00
2019-03-21T11:26:57.470Z,5268.00
2019-03-21T11:27:57.420Z,4820.00
2019-03-21T11:28:57.400Z,4832.00
2019-03-21T11:29:57.402Z,4712.00
2019-03-21T11:30:57.612Z,4844.00
2019-03-21T11:31:58.138Z,5180.00
2019-03-21T11:32:57.373Z,6060.00
2019-03-21T11:33:57.440Z,6660.00
2019-03-21T11:34:57.400Z,6608.00
2019-03-21T11:35:57.344Z,5664.00
2019-03-21T11:36:57.315Z,5636.00
2019-03-21T11:37:57.426Z,5276.00
2019-03-21T11:38:57.287Z,5148.00
2019-03-21T11:39:57.317Z,5584.00
2019-03-21T11:40:57.271Z,6072.00
2019-03-21T11:41:57.278Z,6336.00
2019-03-21T11:42:57.273Z,6516.00
2019-03-21T11:43:57.244Z,5992.00
2019-03-21T11:44:57.232Z,6092.00
2019-03-21T11:45:57.236Z,5684.00
2019-03-21T11:46:57.257Z,5580.00
2019-03-21T11:47:59.548Z,6124.00
2019-03-21T11:48:57.182Z,6248.00
2019-03-21T11:49:57.170Z,5536.00
2019-03-21T11:50:57.210Z,5068.00
2019-03-21T11:51:57.148Z,5044.00
2019-03-21T11:52:57.161Z,5340.00
2019-03-21T11:53:57.119Z,5644.00
2019-03-21T11:54:57.106Z,5924.00
2019-03-21T11:55:57.203Z,6432.00
2019-03-21T11:56:57.087Z,7400.00
2019-03-21T11:57:57.089Z,7856.00
2019-03-21T11:58:57.058Z,7628.00
2019-03-21T11:59:57.127Z,6648.00
2019-03-21T12:00:57.029Z,6740.00
2019-03-21T12:01:57.023Z,7256.00
2019-03-21T12:02:57.026Z,7196.00
2019-03-21T12:03:57.003Z,7116.00
2019-03-21T12:04:56.994Z,7004.00
2019-03-21T12:05:56.975Z,7412.00
2019-03-21T12:06:56.961Z,7936.00
2019-03-21T12:07:56.975Z,8032.00
2019-03-21T12:08:56.953Z,7692.00
2019-03-21T12:09:56.943Z,7320.00
2019-03-21T12:10:56.948Z,7280.00
2019-03-21T12:11:56.915Z,7680.00
2019-03-21T12:12:56.920Z,7312.00
2019-03-21T12:13:56.886Z,6812.00
2019-03-21T12:14:56.886Z,7228.00
2019-03-21T12:15:56.873Z,7416.00
2019-03-21T12:16:56.855Z,7312.00
2019-03-21T12:17:56.872Z,7264.00
2019-03-21T12:18:56.880Z,7300.00
2019-03-21T12:19:56.825Z,7036.00
2019-03-21T12:20:56.829Z,7264.00
2019-03-21T12:21:56.817Z,7120.00
2019-03-21T12:22:56.882Z,6868.00
2019-03-21T12:23:56.790Z,6908.00
2019-03-21T12:24:56.765Z,7048.00
2019-03-21T12:25:56.786Z,6816.00
2019-03-21T12:26:56.745Z,6752.00
2019-03-21T12:27:56.753Z,6680.00
2019-03-21T12:28:56.717Z,6284.00
2019-03-21T12:29:56.717Z,6184.00
2019-03-21T12:30:56.695Z,6360.00
2019-03-21T12:31:56.696Z,6492.00
2019-03-21T12:32:56.710Z,6784.00
2019-03-21T12:33:59.150Z,6420.00
2019-03-21T12:34:56.655Z,6756.00